Time;durP1;ratioP1;P1;durP2;ratioP2;P2;SDS_P1;SDS_P2;PMS_P1;PMS_P2;Temp;Humidity;BMP_temperature;BMP_pressure;BME280_temperature;BME280_humidity;BME280_pressure;Samples;Min_cycle;Max_cycle;Signal;HPM_P1;HPM_P2
2022/05/23 00:00:15;;;;;;;3.85;1.60;;;13.30;99.90;;;;;;5058033;28;20092;-49
2022/05/23 00:02:40;;;;;;;4.13;1.60;;;13.20;99.90;;;;;;5057096;28;20254;-45
2022/05/23 00:05:08;;;;;;;9.90;2.35;;;14.40;99.90;;;;;;5057378;28;20127;-45
2022/05/23 00:07:41;;;;;;;5.28;2.10;;;13.10;99.90;;;;;;5060203;28;20098;-46
2022/05/23 00:10:09;;;;;;;5.38;1.88;;;13.30;99.90;;;;;;5060783;28;20044;-46
2022/05/23 00:12:36;;;;;;;9.75;1.80;;;13.00;99.90;;;;;;5060955;28;20056;-45
2022/05/23 00:15:03;;;;;;;6.75;1.75;;;13.00;99.90;;;;;;5061302;28;20568;-47
2022/05/23 00:17:29;;;;;;;8.07;2.13;;;13.00;99.90;;;;;;5060750;28;20123;-45
2022/05/23 00:19:55;;;;;;;7.45;1.60;;;13.00;99.90;;;;;;5061339;28;20115;-46
2022/05/23 00:22:21;;;;;;;7.28;1.83;;;13.10;99.90;;;;;;5059298;28;20083;-45
2022/05/23 00:24:46;;;;;;;5.03;1.60;;;13.30;99.90;;;;;;5061142;28;20355;-47
2022/05/23 00:27:16;;;;;;;4.93;1.80;;;12.90;99.90;;;;;;5060671;28;20070;-47
2022/05/23 00:29:42;;;;;;;7.30;2.00;;;14.00;99.90;;;;;;5060634;28;20049;-46
2022/05/23 00:37:37;;;;;;;4.18;1.73;;;12.80;99.90;;;;;;5060740;28;20105;-47
2022/05/23 00:40:04;;;;;;;4.80;1.80;;;12.70;99.90;;;;;;5060534;28;20041;-49
2022/05/23 00:45:18;;;;;;;5.85;1.70;;;12.60;99.90;;;;;;5060393;28;20063;-47
2022/05/23 00:47:46;;;;;;;3.97;1.60;;;13.80;99.90;;;;;;5060409;28;20409;-49
2022/05/23 00:50:17;;;;;;;6.35;1.73;;;12.60;99.90;;;;;;5059382;28;20060;-46
2022/05/23 00:53:02;;;;;;;6.85;1.80;;;13.50;99.90;;;;;;5061241;28;20123;-46
2022/05/23 00:55:32;;;;;;;5.25;1.98;;;12.50;99.90;;;;;;5061053;28;20671;-51
2022/05/23 00:58:08;;;;;;;7.70;2.28;;;12.40;99.90;;;;;;5060696;28;20119;-50
2022/05/23 01:00:35;;;;;;;6.07;1.80;;;14.00;99.90;;;;;;5060863;28;20493;-45
2022/05/23 01:03:06;;;;;;;5.78;1.80;;;14.40;99.90;;;;;;5060954;28;20051;-45
2022/05/23 01:05:34;;;;;;;9.25;1.95;;;12.60;99.90;;;;;;5061213;28;20124;-46
2022/05/23 01:07:59;;;;;;;6.90;2.55;;;12.60;99.90;;;;;;5060977;28;20054;-45
2022/05/23 01:10:28;;;;;;;7.80;1.90;;;12.40;99.90;;;;;;5061280;28;20044;-50
2022/05/23 01:12:54;;;;;;;3.88;1.60;;;13.50;99.90;;;;;;5060927;28;20048;-46
2022/05/23 01:15:24;;;;;;;8.38;1.90;;;13.20;99.90;;;;;;5060175;28;20401;-45
2022/05/23 01:17:50;;;;;;;6.70;2.63;;;12.50;99.90;;;;;;5060402;28;20489;-51
2022/05/23 01:20:16;;;;;;;6.45;2.10;;;14.00;99.90;;;;;;5059360;28;20794;-48
2022/05/23 01:23:20;;;;;;;5.38;1.90;;;12.40;99.90;;;;;;5059066;28;20303;-50
2022/05/23 01:25:47;;;;;;;5.45;2.22;;;12.20;99.90;;;;;;5056728;28;20211;-50
2022/05/23 01:28:15;;;;;;;6.90;1.90;;;13.40;99.90;;;;;;5056244;28;20067;-51
2022/05/23 01:30:42;;;;;;;5.68;1.70;;;12.20;99.90;;;;;;5056669;28;20105;-50
2022/05/23 01:33:10;;;;;;;8.75;2.10;;;12.90;99.90;;;;;;5056042;28;20060;-50
2022/05/23 01:35:37;;;;;;;10.15;2.00;;;12.20;99.90;;;;;;5056270;28;20292;-49
2022/05/23 01:38:03;;;;;;;6.68;2.55;;;12.60;99.90;;;;;;5056439;28;20048;-49
2022/05/23 01:40:29;;;;;;;8.35;2.10;;;12.20;99.90;;;;;;5056680;28;20067;-50
2022/05/23 01:42:55;;;;;;;8.45;2.45;;;11.90;99.90;;;;;;5039674;28;20084;-47
2022/05/23 01:45:25;;;;;;;6.13;2.10;;;13.00;99.90;;;;;;5056914;28;20127;-49
2022/05/23 01:47:50;;;;;;;5.95;2.03;;;12.00;99.90;;;;;;5056096;28;20044;-50
2022/05/23 01:50:16;;;;;;;5.40;2.15;;;13.10;99.90;;;;;;5056098;28;20056;-46
2022/05/23 01:52:42;;;;;;;4.95;2.03;;;12.10;99.90;;;;;;5056374;28;20762;-51
2022/05/23 01:55:08;;;;;;;6.97;2.35;;;12.30;99.90;;;;;;5039288;28;20217;-48
2022/05/23 01:57:34;;;;;;;5.82;1.90;;;14.30;99.90;;;;;;5055954;28;20045;-49
2022/05/23 02:02:48;;;;;;;7.82;2.33;;;12.20;99.90;;;;;;5058349;28;20739;-49
2022/05/23 02:05:17;;;;;;;6.65;1.98;;;12.30;99.90;;;;;;5059133;28;20040;-48
2022/05/23 02:07:43;;;;;;;8.43;1.95;;;12.10;99.90;;;;;;5059714;28;20048;-49
2022/05/23 02:10:11;;;;;;;10.50;2.45;;;12.30;99.90;;;;;;5059404;28;20056;-50
2022/05/23 02:12:39;;;;;;;5.93;1.95;;;12.40;99.90;;;;;;5059794;28;20071;-50
2022/05/23 02:15:06;;;;;;;7.97;3.15;;;13.40;99.90;;;;;;5059361;28;20449;-51
2022/05/23 02:17:32;;;;;;;5.60;2.35;;;12.40;99.90;;;;;;5059374;28;20040;-48
2022/05/23 02:19:58;;;;;;;7.38;2.10;;;12.30;99.90;;;;;;5059427;28;20045;-48
2022/05/23 02:22:23;;;;;;;7.57;2.10;;;12.40;99.90;;;;;;5059881;28;20124;-48
2022/05/23 02:24:49;;;;;;;6.65;2.50;;;12.60;99.90;;;;;;5058877;28;20687;-51
2022/05/23 02:27:15;;;;;;;4.88;2.22;;;13.40;99.90;;;;;;5059386;28;20471;-52
2022/05/23 02:29:41;;;;;;;5.38;2.45;;;13.50;99.90;;;;;;5058431;28;20056;-50
2022/05/23 02:32:07;;;;;;;4.63;2.30;;;12.40;99.90;;;;;;5058916;28;20045;-50
2022/05/23 02:34:33;;;;;;;7.82;2.40;;;12.50;99.90;;;;;;5055885;28;20064;-50
2022/05/23 02:36:59;;;;;;;6.13;2.42;;;12.30;99.90;;;;;;5058001;28;20451;-47
2022/05/23 02:39:25;;;;;;;7.47;2.63;;;12.40;99.90;;;;;;5058283;28;20117;-50
2022/05/23 02:41:52;;;;;;;7.07;2.80;;;13.50;99.90;;;;;;5058455;28;20044;-50
2022/05/23 02:44:18;;;;;;;6.50;2.80;;;12.40;99.90;;;;;;5058115;28;20041;-49
2022/05/23 02:46:44;;;;;;;6.38;2.60;;;14.30;99.90;;;;;;5058764;28;20082;-51
2022/05/23 02:49:12;;;;;;;7.50;2.50;;;13.40;99.90;;;;;;5058294;28;20961;-50
2022/05/23 02:51:38;;;;;;;5.25;2.13;;;12.30;99.90;;;;;;5058182;28;20083;-52
2022/05/23 02:54:04;;;;;;;4.72;2.40;;;13.50;99.90;;;;;;5057772;28;20040;-52
2022/05/23 02:56:34;;;;;;;7.03;2.80;;;12.30;99.90;;;;;;5058432;28;20044;-51
2022/05/23 02:59:00;;;;;;;4.85;2.38;;;13.60;99.90;;;;;;5058531;28;20663;-50
2022/05/23 03:01:26;;;;;;;7.60;2.67;;;13.00;99.90;;;;;;5057887;28;20118;-50
2022/05/23 03:03:53;;;;;;;6.85;2.67;;;12.20;99.90;;;;;;5058316;28;20080;-48
2022/05/23 03:06:19;;;;;;;5.97;2.53;;;12.10;99.90;;;;;;5058232;28;20048;-51
2022/05/23 03:08:45;;;;;;;8.23;2.85;;;12.20;99.90;;;;;;5057995;28;20037;-47
2022/05/23 03:11:11;;;;;;;7.50;2.72;;;12.20;99.90;;;;;;5057821;28;20493;-46
2022/05/23 03:13:37;;;;;;;9.30;3.10;;;12.50;99.90;;;;;;5058050;28;20043;-46
2022/05/23 03:16:11;;;;;;;7.07;2.92;;;12.00;99.90;;;;;;5057936;28;20044;-47
2022/05/23 03:18:37;;;;;;;8.15;2.70;;;14.20;99.90;;;;;;5058464;28;20045;-46
2022/05/23 03:21:08;;;;;;;5.25;2.33;;;12.10;99.90;;;;;;5058372;28;20048;-46
2022/05/23 03:29:07;;;;;;;5.88;2.75;;;12.50;99.90;;;;;;5058912;28;20420;-49
2022/05/23 03:31:33;;;;;;;6.63;2.85;;;12.60;99.90;;;;;;5058387;28;20136;-46
2022/05/23 03:33:59;;;;;;;8.73;3.17;;;13.90;99.90;;;;;;5054049;28;20048;-48
2022/05/23 03:36:25;;;;;;;5.60;2.80;;;11.80;99.90;;;;;;5052476;28;20052;-47
2022/05/23 03:38:52;;;;;;;7.30;2.95;;;11.80;99.90;;;;;;5051819;28;20448;-46
2022/05/23 03:41:18;;;;;;;6.72;3.20;;;12.70;99.90;;;;;;5051052;28;20048;-54
2022/05/23 03:43:44;;;;;;;6.60;3.13;;;13.10;99.90;;;;;;5054900;28;20043;-47
2022/05/23 03:46:12;;;;;;;5.88;2.88;;;13.20;99.90;;;;;;5054427;28;20069;-46
2022/05/23 03:48:39;;;;;;;7.85;3.40;;;13.10;99.90;;;;;;5054666;28;20734;-50
2022/05/23 03:51:06;;;;;;;6.30;2.92;;;11.80;99.90;;;;;;5055061;28;20089;-45
2022/05/23 03:53:34;;;;;;;7.80;3.33;;;11.90;99.90;;;;;;5054820;28;20060;-48
2022/05/23 03:56:00;;;;;;;7.80;2.97;;;12.30;99.90;;;;;;5050619;28;20086;-45
2022/05/23 03:58:28;;;;;;;6.38;2.78;;;13.10;99.90;;;;;;5056072;28;20048;-47
2022/05/23 04:01:07;;;;;;;7.63;3.20;;;12.00;99.90;;;;;;5055496;28;21193;-50
2022/05/23 04:03:33;;;;;;;6.85;3.22;;;12.10;99.90;;;;;;5057643;28;20055;-47
2022/05/23 04:06:00;;;;;;;11.27;4.75;;;13.50;99.90;;;;;;5054235;28;20032;-47
2022/05/23 04:08:26;;;;;;;9.57;3.03;;;12.40;99.90;;;;;;5055950;28;20545;-51
2022/05/23 04:10:52;;;;;;;5.20;2.83;;;12.10;99.90;;;;;;5055377;28;20048;-45
2022/05/23 04:13:20;;;;;;;7.25;3.15;;;12.00;99.90;;;;;;5055208;28;20094;-46
2022/05/23 04:15:45;;;;;;;10.05;3.38;;;11.90;99.90;;;;;;5086973;28;20396;-50
2022/05/23 04:18:11;;;;;;;8.95;3.08;;;13.40;99.90;;;;;;5056260;28;20111;-45
2022/05/23 04:20:37;;;;;;;7.10;3.28;;;12.60;99.90;;;;;;5054746;28;20040;-47
2022/05/23 04:23:03;;;;;;;7.70;3.20;;;13.90;99.90;;;;;;5053506;28;20040;-46
2022/05/23 04:25:29;;;;;;;7.63;2.90;;;12.00;99.90;;;;;;5053767;28;20421;-45
2022/05/23 04:27:57;;;;;;;7.78;2.97;;;13.20;99.90;;;;;;5056195;28;20062;-46
2022/05/23 04:30:23;;;;;;;7.95;3.20;;;14.20;99.90;;;;;;5054921;28;20040;-46
2022/05/23 04:35:33;;;;;;;7.45;3.40;;;12.10;99.90;;;;;;5054851;28;21044;-47
2022/05/23 04:37:59;;;;;;;6.85;2.92;;;12.00;99.90;;;;;;5055388;28;20194;-51
2022/05/23 04:40:28;;;;;;;4.88;3.00;;;13.30;99.90;;;;;;5054725;28;20037;-50
2022/05/23 04:42:54;;;;;;;6.07;3.30;;;12.30;99.90;;;;;;5055680;28;20129;-49
2022/05/23 04:45:22;;;;;;;6.25;3.22;;;12.50;99.90;;;;;;5055820;28;20043;-50
2022/05/23 04:50:33;;;;;;;6.22;3.40;;;12.70;99.90;;;;;;5054426;28;20098;-48
2022/05/23 04:53:01;;;;;;;9.38;3.63;;;13.30;99.90;;;;;;5053893;28;20215;-48
2022/05/23 04:55:27;;;;;;;8.15;3.30;;;12.60;99.90;;;;;;5056631;28;20116;-50
2022/05/23 04:57:58;;;;;;;7.88;3.33;;;12.90;99.90;;;;;;5055510;28;20163;-48
2022/05/23 05:00:24;;;;;;;8.45;3.50;;;13.70;99.90;;;;;;5055020;28;20052;-49
2022/05/23 05:02:51;;;;;;;7.88;3.55;;;13.10;99.90;;;;;;5055301;28;20493;-47
2022/05/23 05:05:19;;;;;;;6.60;3.15;;;13.50;99.90;;;;;;5055002;28;20111;-46
2022/05/23 05:07:45;;;;;;;10.13;3.47;;;13.20;99.90;;;;;;5054787;28;20049;-49
2022/05/23 05:10:11;;;;;;;8.02;3.72;;;13.60;99.90;;;;;;5054744;28;20401;-47
2022/05/23 05:12:37;;;;;;;11.63;3.92;;;13.90;99.90;;;;;;5054050;28;20206;-46
2022/05/23 05:15:03;;;;;;;7.00;3.13;;;13.30;99.90;;;;;;5053420;28;20843;-49
2022/05/23 05:17:29;;;;;;;6.88;3.35;;;13.40;99.90;;;;;;5054283;28;20064;-47
2022/05/23 05:19:57;;;;;;;10.63;3.90;;;13.50;99.90;;;;;;5053746;28;20080;-49
2022/05/23 05:22:23;;;;;;;8.25;3.20;;;13.40;99.90;;;;;;5052953;28;20040;-47
2022/05/23 05:24:49;;;;;;;7.93;4.13;;;14.00;99.90;;;;;;5052471;28;20472;-47
2022/05/23 05:27:14;;;;;;;5.93;3.55;;;13.50;99.90;;;;;;5054873;28;20352;-49
2022/05/23 05:29:40;;;;;;;8.70;3.58;;;13.70;99.90;;;;;;5052211;28;20143;-50
2022/05/23 05:32:37;;;;;;;8.48;3.17;;;13.40;99.90;;;;;;5053205;28;20097;-51
2022/05/23 05:35:07;;;;;;;8.48;3.83;;;13.60;99.90;;;;;;5011826;28;20053;-50
2022/05/23 05:37:44;;;;;;;6.30;3.58;;;13.60;99.90;;;;;;5010424;28;20049;-49
2022/05/23 05:40:12;;;;;;;6.15;3.20;;;13.60;99.90;;;;;;5010959;28;20143;-47
2022/05/23 05:42:44;;;;;;;8.10;3.50;;;13.60;99.90;;;;;;4974663;28;20041;-49
2022/05/23 05:45:23;;;;;;;7.25;3.47;;;13.80;99.90;;;;;;5010738;28;20464;-47
2022/05/23 05:47:51;;;;;;;7.45;3.45;;;13.70;99.90;;;;;;5010826;28;20073;-50
2022/05/23 05:50:30;;;;;;;10.07;4.25;;;13.90;99.90;;;;;;5010955;28;20296;-50
2022/05/23 05:53:00;;;;;;;6.43;3.50;;;14.00;99.90;;;;;;5010641;28;20132;-51
2022/05/23 05:55:25;;;;;;;8.15;3.80;;;14.20;99.90;;;;;;4989663;28;20041;-51
2022/05/23 05:57:51;;;;;;;8.07;3.38;;;16.20;99.90;;;;;;5009371;28;20410;-46
2022/05/23 06:00:18;;;;;;;8.52;3.85;;;14.30;99.90;;;;;;5010735;28;20396;-48
2022/05/23 06:02:44;;;;;;;9.32;3.78;;;14.50;99.90;;;;;;5010985;28;20052;-50
2022/05/23 06:05:10;;;;;;;8.10;3.83;;;15.10;99.90;;;;;;5009982;28;20155;-50
2022/05/23 06:13:04;;;;;;;8.50;4.20;;;14.90;99.90;;;;;;5048832;28;20405;-47
2022/05/23 06:15:32;;;;;;;8.35;3.70;;;15.00;99.90;;;;;;5052877;28;20032;-46
2022/05/23 06:17:58;;;;;;;6.57;3.45;;;15.20;99.90;;;;;;5053914;28;20045;-49
2022/05/23 06:20:24;;;;;;;10.00;4.28;;;15.30;99.90;;;;;;5051037;28;20083;-51
2022/05/23 06:22:51;;;;;;;8.88;3.90;;;15.40;99.90;;;;;;5051986;28;20195;-46
2022/05/23 06:25:18;;;;;;;6.65;3.50;;;15.40;99.90;;;;;;5053298;28;20634;-46
2022/05/23 06:27:43;;;;;;;9.98;4.25;;;15.50;99.90;;;;;;5052995;28;20047;-49
2022/05/23 06:30:16;;;;;;;6.97;3.55;;;15.80;99.90;;;;;;5052756;28;20112;-48
2022/05/23 06:32:42;;;;;;;10.15;3.70;;;16.00;99.90;;;;;;5052504;28;20119;-47
2022/05/23 06:35:08;;;;;;;10.00;3.70;;;16.00;99.90;;;;;;5051975;28;20113;-45
2022/05/23 06:37:37;;;;;;;7.70;3.60;;;15.80;99.90;;;;;;5052148;28;20574;-48
2022/05/23 06:40:05;;;;;;;10.32;3.72;;;16.60;99.90;;;;;;5053311;28;20497;-48
2022/05/23 06:42:32;;;;;;;8.88;3.55;;;16.10;99.90;;;;;;5051862;28;20085;-46
2022/05/23 06:44:58;;;;;;;9.02;3.67;;;17.50;99.90;;;;;;5051960;28;20041;-46
2022/05/23 06:47:24;;;;;;;7.25;3.35;;;16.30;99.90;;;;;;5051234;28;20093;-48
2022/05/23 06:49:50;;;;;;;8.55;3.63;;;16.40;99.90;;;;;;5051551;28;20040;-50
2022/05/23 06:52:16;;;;;;;8.07;3.53;;;16.60;99.90;;;;;;5052685;28;20405;-47
2022/05/23 06:54:44;;;;;;;11.10;3.35;;;16.60;99.90;;;;;;5053011;28;20036;-51
2022/05/23 06:57:09;;;;;;;7.63;3.38;;;18.20;99.90;;;;;;5053013;28;20093;-49
2022/05/23 06:59:36;;;;;;;7.82;3.38;;;17.00;99.90;;;;;;5052057;28;20049;-47
2022/05/23 07:02:02;;;;;;;15.55;4.25;;;19.10;99.90;;;;;;5051778;28;20036;-46
2022/05/23 07:12:19;;;;;;;6.93;3.63;;;17.60;99.90;;;;;;5052584;28;20055;-52
2022/05/23 07:12:44;;;;;;;8.70;3.28;;;18.40;99.90;;;;;;5051724;28;20067;-51
2022/05/23 07:15:10;;;;;;;8.18;3.50;;;18.60;99.90;;;;;;5051458;28;20497;-50
2022/05/23 07:17:36;;;;;;;6.82;3.20;;;19.20;99.90;;;;;;5053096;28;20048;-47
2022/05/23 07:20:05;;;;;;;9.88;3.58;;;19.30;99.90;;;;;;5051886;28;20090;-52
2022/05/23 07:22:31;;;;;;;9.85;4.18;;;19.70;99.90;;;;;;5053158;28;20033;-48
2022/05/23 07:24:57;;;;;;;9.75;3.72;;;19.90;99.90;;;;;;5052763;28;20063;-48
2022/05/23 07:27:27;;;;;;;11.00;3.35;;;20.40;99.90;;;;;;5051738;28;20408;-49
2022/05/23 07:29:53;;;;;;;8.98;3.83;;;20.90;99.90;;;;;;5051194;28;20170;-47
2022/05/23 07:32:18;;;;;;;6.82;2.88;;;20.80;99.90;;;;;;5050200;28;20033;-49
2022/05/23 07:34:46;;;;;;;8.35;3.55;;;20.60;99.90;;;;;;5051870;28;20049;-54
2022/05/23 07:37:14;;;;;;;7.88;3.20;;;20.40;99.90;;;;;;5051954;28;20033;-50
2022/05/23 07:39:41;;;;;;;7.78;3.35;;;20.10;99.90;;;;;;5051897;28;20040;-53
2022/05/23 07:42:08;;;;;;;7.07;3.67;;;20.90;99.90;;;;;;5052817;28;20033;-53
2022/05/23 07:44:35;;;;;;;10.13;3.08;;;20.80;99.90;;;;;;5052256;28;20592;-50
2022/05/23 07:47:01;;;;;;;5.05;2.53;;;23.40;99.90;;;;;;5053217;28;20052;-52
2022/05/23 07:49:27;;;;;;;7.57;3.25;;;22.20;99.90;;;;;;5051897;28;20102;-55
2022/05/23 07:51:55;;;;;;;8.35;3.10;;;22.50;99.90;;;;;;5052683;28;20045;-50
2022/05/23 08:02:38;;;;;;;7.80;3.00;;;22.00;99.90;;;;;;5051593;28;20174;-51
2022/05/23 08:05:04;;;;;;;7.75;3.17;;;22.20;99.90;;;;;;5052407;28;20831;-54
2022/05/23 08:07:30;;;;;;;6.45;3.38;;;22.60;99.90;;;;;;5052664;28;20040;-53
2022/05/23 08:10:00;;;;;;;8.43;3.20;;;24.10;99.90;;;;;;5051124;28;20523;-53
2022/05/23 08:12:28;;;;;;;9.68;3.42;;;22.70;99.90;;;;;;5050745;28;20047;-54
2022/05/23 08:14:53;;;;;;;7.30;3.05;;;22.90;99.90;;;;;;5051075;28;20423;-54
2022/05/23 08:17:22;;;;;;;6.57;3.00;;;22.60;99.90;;;;;;5052199;28;20493;-55
2022/05/23 08:19:49;;;;;;;6.93;3.10;;;22.30;99.90;;;;;;5053074;28;20137;-55
2022/05/23 08:22:16;;;;;;;10.13;3.30;;;22.70;99.90;;;;;;5050171;28;20216;-54
2022/05/23 08:24:42;;;;;;;7.18;3.30;;;22.60;99.90;;;;;;5052133;28;20041;-53
2022/05/23 08:27:08;;;;;;;7.00;3.13;;;22.60;99.90;;;;;;5051068;28;20089;-55
2022/05/23 08:29:35;;;;;;;7.28;2.97;;;22.90;99.90;;;;;;5054954;28;20032;-55
2022/05/23 08:32:04;;;;;;;7.30;3.10;;;23.30;99.90;;;;;;5054498;28;20068;-53
2022/05/23 08:34:31;;;;;;;5.97;2.80;;;23.50;99.90;;;;;;5054992;28;20073;-54
2022/05/23 08:36:58;;;;;;;8.07;3.08;;;23.40;99.90;;;;;;5055223;28;20055;-55
2022/05/23 08:39:25;;;;;;;6.75;3.00;;;23.30;99.90;;;;;;5054978;28;20047;-54
2022/05/23 08:41:52;;;;;;;5.57;2.75;;;23.00;99.90;;;;;;5054452;28;20040;-54
2022/05/23 08:44:44;;;;;;;8.95;4.57;;;22.90;99.90;;;;;;5055514;28;20115;-54
2022/05/23 08:47:42;;;;;;;11.60;8.20;;;22.50;99.90;;;;;;5053989;28;20048;-54
2022/05/23 08:50:41;;;;;;;12.95;8.38;;;22.30;99.90;;;;;;5055983;28;20052;-55
2022/05/23 08:53:13;;;;;;;8.32;3.83;;;21.70;99.90;;;;;;5055241;28;20095;-55
2022/05/23 08:55:46;;;;;;;8.70;3.60;;;21.70;99.90;;;;;;5055090;28;20042;-55
2022/05/23 08:58:25;;;;;;;9.57;3.60;;;21.50;99.90;;;;;;5055172;28;20517;-55
2022/05/23 09:01:07;;;;;;;6.97;3.30;;;21.70;99.90;;;;;;5056016;28;20078;-55
2022/05/23 09:03:40;;;;;;;6.55;3.22;;;21.70;99.90;;;;;;5054776;28;20040;-55
2022/05/23 09:06:18;;;;;;;7.90;3.65;;;22.10;99.90;;;;;;5057085;28;20052;-55
2022/05/23 09:08:52;;;;;;;8.65;3.65;;;22.40;99.90;;;;;;5054995;28;20036;-55
2022/05/23 09:11:38;;;;;;;8.30;3.70;;;22.60;99.90;;;;;;5055243;28;20044;-52
2022/05/23 09:14:06;;;;;;;7.22;3.80;;;22.80;99.90;;;;;;5053818;28;20118;-49
2022/05/23 09:16:40;;;;;;;7.32;3.40;;;22.90;99.90;;;;;;5054057;28;20409;-55
2022/05/23 09:19:27;;;;;;;9.73;4.20;;;25.00;99.90;;;;;;5054954;28;20408;-52
2022/05/23 09:22:14;;;;;;;9.00;3.88;;;22.80;99.90;;;;;;5054263;28;20058;-53
2022/05/23 09:24:40;;;;;;;11.65;4.32;;;22.70;99.90;;;;;;5053698;28;20652;-54
2022/05/23 09:27:37;;;;;;;11.48;4.57;;;22.80;99.90;;;;;;5054316;28;20075;-54
2022/05/23 09:30:06;;;;;;;9.10;4.05;;;22.60;99.90;;;;;;5008660;28;20052;-55
2022/05/23 09:32:37;;;;;;;10.60;4.07;;;22.70;99.90;;;;;;5010021;28;20060;-53
2022/05/23 09:35:45;;;;;;;8.73;3.97;;;22.60;99.90;;;;;;5008263;28;20495;-54
2022/05/23 09:38:32;;;;;;;9.70;3.97;;;22.40;99.90;;;;;;5010361;28;20631;-53
2022/05/23 09:40:59;;;;;;;7.97;3.50;;;22.10;99.90;;;;;;5008369;28;20062;-54
2022/05/23 09:49:12;;;;;;;10.43;4.00;;;21.70;99.90;;;;;;5007594;28;20072;-54
2022/05/23 09:51:56;;;;;;;8.02;3.72;;;21.80;99.90;;;;;;5009810;28;20040;-52
2022/05/23 09:55:03;;;;;;;9.02;3.58;;;21.70;99.90;;;;;;5006097;28;20050;-54
2022/05/23 09:57:42;;;;;;;10.35;3.60;;;21.80;99.90;;;;;;4952297;28;20046;-51
2022/05/23 10:00:35;;;;;;;9.05;3.67;;;22.00;99.90;;;;;;4950806;28;20127;-53
2022/05/23 10:03:03;;;;;;;9.38;3.60;;;22.10;99.90;;;;;;4952502;28;20630;-54
2022/05/23 10:05:36;;;;;;;8.55;3.35;;;22.30;99.90;;;;;;4952419;28;20149;-53
2022/05/23 10:08:28;;;;;;;5.68;3.10;;;22.30;99.90;;;;;;4967577;28;20105;-52
2022/05/23 10:11:06;;;;;;;7.93;3.03;;;22.40;99.90;;;;;;4971652;28;20117;-53
2022/05/23 10:13:41;;;;;;;10.55;3.63;;;22.70;99.90;;;;;;4970723;28;20077;-56
2022/05/23 10:16:17;;;;;;;5.38;2.33;;;22.90;99.90;;;;;;4972431;28;20054;-53
2022/05/23 10:18:54;;;;;;;6.18;2.35;;;23.30;99.90;;;;;;4970697;28;20043;-52
2022/05/23 10:21:27;;;;;;;7.28;2.35;;;23.30;99.90;;;;;;4969043;28;20061;-53
2022/05/23 10:24:07;;;;;;;8.68;2.45;;;23.40;99.90;;;;;;4971296;28;20089;-54
2022/05/23 10:26:50;;;;;;;4.88;1.80;;;23.70;99.90;;;;;;4971650;28;20042;-52
2022/05/23 10:29:30;;;;;;;6.10;1.90;;;24.20;99.90;;;;;;4953375;28;20132;-54
2022/05/23 10:32:14;;;;;;;6.85;1.65;;;24.70;99.90;;;;;;4970002;28;21317;-54
2022/05/23 10:34:51;;;;;;;5.88;2.13;;;25.30;99.90;;;;;;5014685;28;20045;-54
2022/05/23 10:37:22;;;;;;;5.38;1.42;;;25.30;99.90;;;;;;5052620;28;20199;-52
2022/05/23 10:43:02;;;;;;;7.60;2.30;;;25.70;99.90;;;;;;5051800;28;20041;-52
2022/05/23 10:45:33;;;;;;;5.93;1.55;;;25.50;99.90;;;;;;5052334;28;20131;-54
2022/05/23 10:48:20;;;;;;;8.00;1.95;;;25.10;99.90;;;;;;5052197;28;20075;-50
2022/05/23 10:51:08;;;;;;;5.78;1.70;;;25.50;99.90;;;;;;5051061;28;20501;-50
2022/05/23 10:53:52;;;;;;;6.40;1.73;;;24.50;99.90;;;;;;5051945;28;20661;-51
2022/05/23 10:56:36;;;;;;;8.13;1.88;;;24.50;99.90;;;;;;5050547;28;20040;-52
2022/05/23 10:59:14;;;;;;;5.40;1.65;;;24.70;99.90;;;;;;5051254;28;20624;-53
2022/05/23 11:01:45;;;;;;;5.30;1.70;;;25.20;99.90;;;;;;5051732;28;20461;-53
2022/05/23 11:04:25;;;;;;;9.05;1.58;;;25.50;99.90;;;;;;5051155;28;20041;-54
2022/05/23 11:06:59;;;;;;;13.30;9.07;;;25.30;99.90;;;;;;5051869;28;20145;-52
2022/05/23 11:09:52;;;;;;;9.07;5.30;;;24.40;99.90;;;;;;5052087;28;21205;-53
2022/05/23 11:12:29;;;;;;;7.22;5.00;;;25.50;99.90;;;;;;5051542;28;20067;-51
2022/05/23 11:15:09;;;;;;;8.35;4.35;;;25.60;99.90;;;;;;5051376;28;21969;-51
2022/05/23 11:17:40;;;;;;;13.50;7.72;;;26.00;99.90;;;;;;5049888;28;20052;-53
2022/05/23 11:20:26;;;;;;;8.15;4.53;;;25.80;99.90;;;;;;5050442;28;20878;-49
2022/05/23 11:22:58;;;;;;;36.13;15.63;;;25.90;99.90;;;;;;5051363;28;20085;-54
2022/05/23 11:25:27;;;;;;;11.13;9.65;;;25.40;99.90;;;;;;5050988;28;20036;-51
2022/05/23 11:34:00;;;;;;;22.35;20.00;;;25.50;99.90;;;;;;5050620;28;20059;-52
2022/05/23 11:39:44;;;;;;;52.90;30.35;;;25.90;99.90;;;;;;5040701;28;20059;-53
2022/05/23 11:42:32;;;;;;;48.30;34.05;;;25.90;99.90;;;;;;5026033;28;20079;-51
2022/05/23 11:48:54;;;;;;;259.40;117.15;;;25.60;99.90;;;;;;5008545;28;20045;-53
2022/05/23 11:51:23;;;;;;;156.52;83.35;;;25.80;99.90;;;;;;4951677;28;20664;-53
2022/05/23 11:54:31;;;;;;;279.75;154.30;;;25.60;99.90;;;;;;4950737;28;20579;-52
2022/05/23 11:57:02;;;;;;;569.13;245.55;;;25.50;99.90;;;;;;4929240;28;20087;-52
2022/05/23 11:59:49;;;;;;;118.78;67.38;;;25.30;99.90;;;;;;4898473;28;20130;-50
2022/05/23 12:02:26;;;;;;;181.75;95.88;;;25.10;99.90;;;;;;4895268;29;20056;-54
2022/05/23 12:05:02;;;;;;;256.88;107.25;;;25.00;99.90;;;;;;4897756;29;20044;-52
2022/05/23 12:07:38;;;;;;;359.77;156.98;;;25.00;99.90;;;;;;4897647;29;20553;-53
2022/05/23 12:10:22;;;;;;;497.38;251.73;;;24.80;99.90;;;;;;4897513;29;20064;-52
2022/05/23 12:13:11;;;;;;;624.42;437.23;;;24.70;99.90;;;;;;4896807;29;20056;-52
2022/05/23 12:15:51;;;;;;;262.73;149.60;;;24.40;99.90;;;;;;4896820;29;20059;-51
2022/05/23 12:18:22;;;;;;;377.88;262.88;;;24.20;99.90;;;;;;4899604;29;20717;-50
2022/05/23 12:20:52;;;;;;;622.78;366.52;;;24.20;99.90;;;;;;4883957;29;20619;-53
2022/05/23 12:23:36;;;;;;;413.75;209.23;;;24.00;99.90;;;;;;4914532;29;20539;-51
2022/05/23 12:26:17;;;;;;;773.78;380.10;;;24.00;99.90;;;;;;4913287;29;20166;-51
2022/05/23 12:28:55;;;;;;;;;;;23.90;99.90;;;;;;4927257;29;20059;-50
2022/05/23 12:31:27;;;;;;;654.42;352.30;;;23.90;99.90;;;;;;4917172;29;20493;-49
2022/05/23 12:34:02;;;;;;;892.13;417.70;;;23.90;99.90;;;;;;4957850;28;20058;-53
2022/05/23 12:36:31;;;;;;;713.40;555.83;;;23.80;99.90;;;;;;4990558;28;20097;-54
2022/05/23 12:39:29;;;;;;;957.28;721.90;;;23.70;99.90;;;;;;4997252;28;20110;-49
2022/05/23 12:42:11;;;;;;;107.80;79.40;;;23.70;99.90;;;;;;5008021;28;20394;-52
2022/05/23 12:45:04;;;;;;;866.10;633.38;;;23.70;99.90;;;;;;5010836;28;20054;-53
2022/05/23 12:48:05;;;;;;;633.33;410.77;;;23.70;99.90;;;;;;5005148;28;20498;-50
2022/05/23 12:50:45;;;;;;;211.88;176.70;;;23.70;99.90;;;;;;4954096;28;20055;-50
2022/05/23 12:53:33;;;;;;;251.65;177.88;;;23.60;99.90;;;;;;4953520;28;20051;-50
2022/05/23 12:56:15;;;;;;;544.83;412.90;;;23.60;99.90;;;;;;4954241;28;20515;-51
2022/05/23 12:59:11;;;;;;;465.48;263.08;;;23.40;99.90;;;;;;4953075;28;20055;-54
2022/05/23 13:01:42;;;;;;;303.05;244.77;;;23.30;99.90;;;;;;4952835;28;20070;-48
2022/05/23 13:04:28;;;;;;;;;;;23.30;99.90;;;;;;4955429;28;20045;-48
2022/05/23 13:07:15;;;;;;;296.80;221.00;;;23.20;99.90;;;;;;4972150;28;19940;-54
2022/05/23 13:10:02;;;;;;;377.40;272.27;;;23.00;99.90;;;;;;4971336;28;20431;-50
2022/05/23 13:12:35;;;;;;;198.77;166.27;;;22.80;99.90;;;;;;4971980;28;20061;-53
2022/05/23 13:15:03;;;;;;;71.57;45.90;;;22.60;99.90;;;;;;4969666;28;20097;-51
2022/05/23 13:17:42;;;;;;;98.95;88.75;;;22.50;99.90;;;;;;4974243;28;20054;-50
2022/05/23 13:23:17;;;;;;;26.65;22.83;;;22.70;99.90;;;;;;4990314;28;20100;-49
2022/05/23 13:25:43;;;;;;;7.45;6.20;;;22.50;99.90;;;;;;4991500;28;21382;-53
2022/05/23 13:28:12;;;;;;;10.80;8.98;;;24.50;99.90;;;;;;5037645;28;20048;-51
2022/05/23 13:30:42;;;;;;;8.02;6.47;;;22.30;99.90;;;;;;5050300;28;20448;-49
2022/05/23 13:33:14;;;;;;;8.70;5.82;;;22.00;99.90;;;;;;5048832;28;20065;-53
2022/05/23 13:35:41;;;;;;;;;;;22.10;99.90;;;;;;5035122;28;20098;-49
2022/05/23 13:38:17;;;;;;;12.82;9.50;;;22.00;99.90;;;;;;5050216;28;19973;-50
2022/05/23 13:40:48;;;;;;;12.65;7.70;;;21.80;99.90;;;;;;5049041;28;21483;-53
2022/05/23 13:43:26;;;;;;;9.38;6.75;;;22.00;99.90;;;;;;5049779;28;20509;-48
2022/05/23 13:46:00;;;;;;;6.30;5.15;;;21.90;99.90;;;;;;5054101;28;20123;-49
2022/05/23 13:48:35;;;;;;;8.80;4.68;;;21.60;99.90;;;;;;5053367;28;20044;-51
2022/05/23 13:51:05;;;;;;;6.45;2.00;;;22.00;99.90;;;;;;5052300;28;20714;-49
2022/05/23 13:53:49;;;;;;;3.45;1.75;;;22.10;99.90;;;;;;5051333;28;20033;-49
2022/05/23 13:56:16;;;;;;;7.40;2.20;;;22.20;99.90;;;;;;5053832;28;20771;-52
2022/05/23 13:58:55;;;;;;;6.07;1.90;;;22.40;99.90;;;;;;5053347;28;20055;-47
2022/05/23 14:01:26;;;;;;;6.25;2.10;;;22.40;99.90;;;;;;5053421;28;20039;-52
2022/05/23 14:03:58;;;;;;;7.85;2.10;;;22.60;99.90;;;;;;5054740;28;20040;-51
2022/05/23 14:06:30;;;;;;;5.32;2.00;;;22.70;99.90;;;;;;5054631;28;20071;-51
2022/05/23 14:09:00;;;;;;;9.30;2.25;;;22.70;99.90;;;;;;5053268;28;20049;-53
2022/05/23 14:11:38;;;;;;;5.60;1.85;;;23.00;99.90;;;;;;5052961;28;20408;-50